Time,TemperatureF,DewpointF,PressureIn,WindDirection,WindDirectionDegrees,WindSpeedMPH,WindSpeedGustMPH,Humidity,HourlyPrecipIn,Conditions,Clouds,dailyrainin,SoftwareType,DateUTC
2013-03-28 00:02:00,42.0,33.0,-100.00,NW,320,3.0,7.0,70,-99.99,,,-99.99,,2013-03-28 07:02:00,
2013-03-28 00:10:00,41.0,33.0,-100.00,NW,315,6.0,7.0,72,-99.99,,,-99.99,,2013-03-28 07:10:00,
2013-03-28 01:02:00,41.0,33.0,-100.00,NW,315,6.0,7.0,72,-99.99,,,-99.99,,2013-03-28 08:02:00,
2013-03-28 02:01:00,40.0,33.0,-100.00,NNW,340,3.0,7.0,75,-99.99,,,-99.99,,2013-03-28 09:01:00,
2013-03-28 02:10:00,38.0,32.0,-100.00,NNW,335,3.0,7.0,78,-99.99,,,-99.99,,2013-03-28 09:10:00,
2013-03-28 02:12:00,40.0,33.0,-100.00,NNW,340,3.0,7.0,75,-99.99,,,-99.99,,2013-03-28 09:12:00,
2013-03-28 03:02:00,38.0,32.0,-100.00,NNW,335,3.0,7.0,78,-99.99,,,-99.99,,2013-03-28 10:02:00,
2013-03-28 04:02:00,38.0,33.0,-100.00,WNW,285,5.0,7.0,82,-99.99,,,-99.99,,2013-03-28 11:02:00,
2013-03-28 04:12:00,38.0,33.0,-100.00,WNW,285,5.0,7.0,82,-99.99,,,-99.99,,2013-03-28 11:12:00,
2013-03-28 05:02:00,37.0,33.0,-100.00,WNW,290,5.0,7.0,85,-99.99,,,-99.99,,2013-03-28 12:02:00,
2013-03-28 05:10:00,37.0,33.0,-100.00,North,360,3.0,6.0,85,-99.99,,,-99.99,,2013-03-28 12:10:00,
2013-03-28 06:02:00,37.0,33.0,-100.00,North,360,3.0,6.0,85,-99.99,,,-99.99,,2013-03-28 13:02:00,
2013-03-28 07:02:00,37.0,33.0,-100.00,WNW,290,5.0,7.0,85,-99.99,,,-99.99,,2013-03-28 14:02:00,
2013-03-28 07:10:00,36.0,32.0,-100.00,NNW,330,3.0,7.0,85,-99.99,,,-99.99,,2013-03-28 14:10:00,
2013-03-28 07:12:00,37.0,33.0,-100.00,WNW,290,5.0,7.0,85,-99.99,,,-99.99,,2013-03-28 14:12:00,
2013-03-28 08:02:00,36.0,32.0,-100.00,NNW,330,3.0,7.0,85,-99.99,,,-99.99,,2013-03-28 15:02:00,
2013-03-28 09:02:00,38.0,34.0,-100.00,WNW,300,3.0,3.0,85,-99.99,,,-99.99,,2013-03-28 16:02:00,
2013-03-28 09:12:00,38.0,34.0,-100.00,WNW,300,3.0,3.0,85,-99.99,,,-99.99,,2013-03-28 16:12:00,
2013-03-28 09:20:00,43.0,36.0,-100.00,NW,320,2.0,5.0,76,-99.99,,,-99.99,,2013-03-28 16:20:00,
2013-03-28 10:02:00,43.0,36.0,-100.00,NW,320,2.0,5.0,76,-99.99,,,-99.99,,2013-03-28 17:02:00,
2013-03-28 10:10:00,43.0,35.0,-100.00,NNW,330,3.0,6.0,73,-99.99,,,-99.99,,2013-03-28 17:10:00,
2013-03-28 10:12:00,43.0,36.0,-100.00,NW,320,2.0,5.0,76,-99.99,,,-99.99,,2013-03-28 17:12:00,
2013-03-28 11:02:00,43.0,35.0,-100.00,NNW,330,3.0,6.0,73,-99.99,,,-99.99,,2013-03-28 18:02:00,
2013-03-28 12:02:00,45.0,39.0,-100.00,WNW,295,3.0,6.0,79,-99.99,,,-99.99,,2013-03-28 19:02:00,
2013-03-28 12:12:00,45.0,39.0,-100.00,WNW,295,3.0,6.0,79,-99.99,,,-99.99,,2013-03-28 19:12:00,
2013-03-28 13:02:00,53.0,38.0,-100.00,North,350,5.0,10.0,56,-99.99,,,-99.99,,2013-03-28 20:02:00,
2013-03-28 13:10:00,60.0,38.0,-100.00,North,360,3.0,8.0,43,-99.99,,,-99.99,,2013-03-28 20:10:00,
2013-03-28 14:02:00,60.0,38.0,-100.00,North,360,3.0,8.0,43,-99.99,,,-99.99,,2013-03-28 21:02:00,
2013-03-28 15:02:00,64.0,37.0,-100.00,South,175,3.0,6.0,36,-99.99,,,-99.99,,2013-03-28 22:02:00,
2013-03-28 15:10:00,65.0,36.0,-100.00,West,270,2.0,7.0,34,-99.99,,,-99.99,,2013-03-28 22:10:00,
2013-03-28 15:12:00,64.0,37.0,-100.00,South,175,3.0,6.0,36,-99.99,,,-99.99,,2013-03-28 22:12:00,
2013-03-28 16:02:00,65.0,36.0,-100.00,West,270,2.0,7.0,34,-99.99,,,-99.99,,2013-03-28 23:02:00,
2013-03-28 17:02:00,63.0,35.0,-100.00,SW,235,2.0,5.0,35,-99.99,,,-99.99,,2013-03-29 00:02:00,
2013-03-28 17:12:00,63.0,35.0,-100.00,SW,235,2.0,5.0,35,-99.99,,,-99.99,,2013-03-29 00:12:00,
2013-03-28 18:02:00,62.0,35.0,-100.00,East,80,1.0,3.0,36,-99.99,,,-99.99,,2013-03-29 01:02:00,
2013-03-28 18:10:00,61.0,35.0,-100.00,SSE,155,2.0,3.0,37,-99.99,,,-99.99,,2013-03-29 01:10:00,
2013-03-28 19:02:00,61.0,35.0,-100.00,SSE,155,2.0,3.0,37,-99.99,,,-99.99,,2013-03-29 02:02:00,
2013-03-28 20:02:00,57.0,37.0,-100.00,West,275,0.0,1.0,47,-99.99,,,-99.99,,2013-03-29 03:02:00,
2013-03-28 20:10:00,55.0,37.0,-100.00,NW,305,2.0,5.0,50,-99.99,,,-99.99,,2013-03-29 03:10:00,
2013-03-28 20:12:00,57.0,37.0,-100.00,West,275,0.0,1.0,47,-99.99,,,-99.99,,2013-03-29 03:12:00,
2013-03-28 21:02:00,55.0,37.0,-100.00,NW,305,2.0,5.0,50,-99.99,,,-99.99,,2013-03-29 04:02:00,
2013-03-28 22:02:00,51.0,37.0,-100.00,WNW,300,5.0,6.0,58,-99.99,,,-99.99,,2013-03-29 05:02:00,
2013-03-28 22:12:00,51.0,37.0,-100.00,WNW,300,5.0,6.0,58,-99.99,,,-99.99,,2013-03-29 05:12:00,
2013-03-28 22:20:00,49.0,36.0,-100.00,WNW,300,3.0,6.0,60,-99.99,,,-99.99,,2013-03-29 05:20:00,
2013-03-28 23:02:00,49.0,36.0,-100.00,WNW,300,3.0,6.0,60,-99.99,,,-99.99,,2013-03-29 06:02:00,
2013-03-28 23:10:00,48.0,36.0,-100.00,WNW,290,5.0,12.0,62,-99.99,,,-99.99,,2013-03-29 06:10:00,
2013-03-28 23:12:00,49.0,36.0,-100.00,WNW,300,3.0,6.0,60,-99.99,,,-99.99,,2013-03-29 06:12:00,